Time;durP1;ratioP1;P1;durP2;ratioP2;P2;SDS_P1;SDS_P2;PMS_P1;PMS_P2;Temp;Humidity;BMP_temperature;BMP_pressure;BME280_temperature;BME280_humidity;BME280_pressure;Samples;Min_cycle;Max_cycle;Signal;HPM_P1;HPM_P2
2022/08/17 00:01:06;;;;;;;;;;;21.60;99.50;;;;;;5033202;28;19921;-70
2022/08/17 00:03:34;;;;;;;;;;;21.50;99.70;;;;;;5032763;28;19921;-71
2022/08/17 00:06:01;;;;;;;;;;;21.50;99.80;;;;;;5020386;28;19987;-70
2022/08/17 00:08:34;;;;;;;;;;;21.50;99.80;;;;;;5032769;28;19924;-71
2022/08/17 00:11:00;;;;;;;;;;;21.50;99.90;;;;;;5032938;28;19921;-71
2022/08/17 00:13:32;;;;;;;;;;;21.50;99.90;;;;;;5032153;28;19928;-71
2022/08/17 00:16:04;;;;;;;;;;;21.40;99.90;;;;;;5031778;28;19921;-70
2022/08/17 00:18:30;;;;;;;;;;;21.40;99.90;;;;;;5032805;28;19957;-71
2022/08/17 00:20:56;;;;;;;;;;;21.40;99.90;;;;;;5033100;28;19974;-71
2022/08/17 00:23:22;;;;;;;;;;;21.30;99.90;;;;;;5032656;28;19929;-70
2022/08/17 00:25:48;;;;;;;;;;;21.30;99.90;;;;;;5031932;28;19921;-71
2022/08/17 00:28:15;;;;;;;;;;;21.30;99.90;;;;;;5032393;28;20441;-71
2022/08/17 00:30:41;;;;;;;;;;;21.30;99.90;;;;;;5032226;28;19928;-71
2022/08/17 00:33:10;;;;;;;;;;;21.30;99.90;;;;;;5032304;28;19924;-71
2022/08/17 00:35:35;;;;;;;;;;;21.30;99.90;;;;;;5032527;28;19944;-70
2022/08/17 00:38:02;;;;;;;;;;;21.30;99.90;;;;;;5032270;28;19925;-70
2022/08/17 00:40:28;;;;;;;;;;;21.30;99.90;;;;;;5032062;28;19921;-71
2022/08/17 00:42:54;;;;;;;;;;;21.20;99.90;;;;;;5031780;28;20382;-70
2022/08/17 00:45:19;;;;;;;;;;;21.20;99.90;;;;;;5030805;28;19929;-70
2022/08/17 00:47:45;;;;;;;;;;;21.20;99.90;;;;;;5031282;28;20449;-70
2022/08/17 00:50:13;;;;;;;;;;;21.20;99.90;;;;;;5031263;28;19928;-70
2022/08/17 00:52:44;;;;;;;;;;;21.20;99.90;;;;;;5030740;28;19921;-70
2022/08/17 00:55:10;;;;;;;;;;;21.10;99.90;;;;;;5031665;28;20402;-70
2022/08/17 00:57:38;;;;;;;;;;;21.10;99.90;;;;;;5030179;28;20036;-70
2022/08/17 01:00:18;;;;;;;;;;;21.10;99.90;;;;;;5031757;28;20375;-70
2022/08/17 01:02:45;;;;;;;;;;;21.00;99.90;;;;;;5030756;28;19967;-70
2022/08/17 01:05:17;;;;;;;;;;;21.00;99.90;;;;;;5031424;28;20015;-70
2022/08/17 01:07:43;;;;;;;;;;;20.90;99.90;;;;;;5030981;28;19968;-70
2022/08/17 01:10:10;;;;;;;;;;;20.90;99.90;;;;;;5031404;28;19925;-70
2022/08/17 01:12:36;;;;;;;;;;;20.90;99.90;;;;;;5030969;28;19967;-70
2022/08/17 01:15:02;;;;;;;;;;;20.90;99.90;;;;;;5031235;28;19929;-70
2022/08/17 01:17:28;;;;;;;;;;;20.90;99.90;;;;;;5030603;28;19921;-70
2022/08/17 01:19:54;;;;;;;;;;;20.90;99.90;;;;;;5031181;28;19928;-71
2022/08/17 01:22:21;;;;;;;;;;;21.00;99.90;;;;;;5031398;28;20299;-70
2022/08/17 01:24:57;;;;;;;;;;;21.00;99.90;;;;;;5030695;28;20443;-70
2022/08/17 01:27:25;;;;;;;;;;;20.90;99.90;;;;;;5030722;28;21195;-70
2022/08/17 01:29:55;;;;;;;;;;;20.90;99.90;;;;;;5029495;28;20379;-71
2022/08/17 01:32:21;;;;;;;;;;;20.90;99.90;;;;;;5031228;28;20298;-70
2022/08/17 01:34:46;;;;;;;;;;;20.90;99.90;;;;;;5030273;28;19929;-70
2022/08/17 01:37:13;;;;;;;;;;;20.80;99.90;;;;;;5030960;28;19921;-71
2022/08/17 01:39:47;;;;;;;;;;;20.80;99.90;;;;;;5030721;28;19921;-70
2022/08/17 01:42:21;;;;;;;;;;;20.80;99.90;;;;;;5030795;28;19920;-70
2022/08/17 01:44:47;;;;;;;;;;;20.80;99.90;;;;;;5030106;28;19978;-70
2022/08/17 01:47:12;;;;;;;;;;;20.70;99.90;;;;;;5030465;28;19921;-70
2022/08/17 01:49:38;;;;;;;;;;;20.70;99.90;;;;;;5030718;28;19920;-70
2022/08/17 01:52:06;;;;;;;;;;;20.70;99.90;;;;;;5030196;28;19921;-70
2022/08/17 01:54:31;;;;;;;;;;;20.70;99.90;;;;;;5030794;28;19925;-70
2022/08/17 01:56:57;;;;;;;;;;;20.70;99.90;;;;;;5030465;28;19928;-72
2022/08/17 01:59:22;;;;;;;;;;;20.60;99.90;;;;;;5030268;28;20469;-71
2022/08/17 02:01:48;;;;;;;;;;;20.60;99.90;;;;;;5030590;28;19921;-71
2022/08/17 02:04:13;;;;;;;;;;;20.60;99.90;;;;;;5029023;28;19928;-71
2022/08/17 02:06:42;;;;;;;;;;;20.60;99.90;;;;;;5030236;28;20020;-71
2022/08/17 02:09:07;;;;;;;;;;;20.50;99.90;;;;;;5030344;28;20008;-71
2022/08/17 02:11:34;;;;;;;;;;;20.50;99.90;;;;;;5029986;28;20032;-71
2022/08/17 02:14:00;;;;;;;;;;;20.50;99.90;;;;;;5029482;28;19929;-71
2022/08/17 02:16:25;;;;;;;;;;;20.50;99.90;;;;;;5030250;28;19932;-71
2022/08/17 02:18:51;;;;;;;;;;;20.50;99.90;;;;;;5028961;28;19921;-71
2022/08/17 02:21:16;;;;;;;;;;;20.50;99.90;;;;;;5030196;28;19929;-71
2022/08/17 02:23:43;;;;;;;;;;;20.40;99.90;;;;;;5028986;28;20000;-71
2022/08/17 02:26:09;;;;;;;;;;;20.40;99.90;;;;;;5030345;28;19928;-71
2022/08/17 02:28:34;;;;;;;;;;;20.40;99.90;;;;;;5029714;28;19975;-71
2022/08/17 02:31:04;;;;;;;;;;;20.30;99.90;;;;;;5030050;28;20366;-72
2022/08/17 02:33:30;;;;;;;;;;;20.30;99.90;;;;;;5029475;28;19921;-71
2022/08/17 02:35:56;;;;;;;;;;;20.30;99.90;;;;;;5029951;28;19921;-71
2022/08/17 02:38:22;;;;;;;;;;;20.30;99.90;;;;;;5029733;28;20450;-71
2022/08/17 02:40:47;;;;;;;;;;;20.30;99.90;;;;;;5029106;28;20003;-71
2022/08/17 02:43:13;;;;;;;;;;;20.40;99.90;;;;;;5029691;28;19928;-71
2022/08/17 02:45:38;;;;;;;;;;;20.30;99.90;;;;;;5029710;28;19952;-71
2022/08/17 02:48:04;;;;;;;;;;;20.30;99.90;;;;;;5029384;28;19964;-71
2022/08/17 02:50:30;;;;;;;;;;;20.30;99.90;;;;;;5028035;28;20390;-71
2022/08/17 02:52:55;;;;;;;;;;;20.30;99.90;;;;;;5016563;28;19925;-71
2022/08/17 02:55:25;;;;;;;;;;;20.30;99.90;;;;;;5029285;28;20302;-71
2022/08/17 02:57:51;;;;;;;;;;;20.30;99.90;;;;;;5029263;28;19921;-71
2022/08/17 03:00:27;;;;;;;;;;;20.30;99.90;;;;;;5029401;28;19925;-71
2022/08/17 03:02:55;;;;;;;;;;;20.30;99.90;;;;;;5017527;28;20416;-72
2022/08/17 03:05:22;;;;;;;;;;;20.30;99.90;;;;;;5029202;28;19921;-71
2022/08/17 03:07:48;;;;;;;;;;;20.30;99.90;;;;;;5029052;28;19921;-71
2022/08/17 03:10:13;;;;;;;;;;;20.30;99.90;;;;;;5029523;28;19928;-71
2022/08/17 03:12:40;;;;;;;;;;;20.30;99.90;;;;;;5028950;28;19921;-72
2022/08/17 03:15:11;;;;;;;;;;;20.30;99.90;;;;;;5028666;28;20383;-70
2022/08/17 03:17:36;;;;;;;;;;;20.30;99.90;;;;;;5029131;28;20030;-71
2022/08/17 03:20:03;;;;;;;;;;;20.30;99.90;;;;;;5028552;28;19984;-71
2022/08/17 03:22:28;;;;;;;;;;;20.20;99.90;;;;;;5029368;28;19928;-72
2022/08/17 03:24:55;;;;;;;;;;;20.20;99.90;;;;;;5028998;28;19925;-71
2022/08/17 03:27:20;;;;;;;;;;;20.20;99.90;;;;;;5028801;28;20416;-71
2022/08/17 03:29:46;;;;;;;;;;;20.20;99.90;;;;;;5028924;28;19929;-69
2022/08/17 03:32:12;;;;;;;;;;;20.20;99.90;;;;;;5029337;28;19921;-70
2022/08/17 03:34:37;;;;;;;;;;;20.20;99.90;;;;;;5028705;28;20008;-70
2022/08/17 03:37:03;;;;;;;;;;;20.20;99.90;;;;;;5029160;28;20442;-70
2022/08/17 03:39:29;;;;;;;;;;;20.20;99.90;;;;;;5028771;28;19929;-71
2022/08/17 03:42:01;;;;;;;;;;;20.20;99.90;;;;;;5028486;28;19929;-70
2022/08/17 03:44:26;;;;;;;;;;;20.10;99.90;;;;;;5028468;28;20040;-70
2022/08/17 03:57:48;;;;;;;;;;;20.10;99.90;;;;;;5028836;28;20028;-70
2022/08/17 04:00:14;;;;;;;;;;;20.10;99.90;;;;;;5028605;28;20326;-69
2022/08/17 04:02:41;;;;;;;;;;;20.10;99.90;;;;;;5028486;28;19999;-70
2022/08/17 04:05:06;;;;;;;;;;;20.10;99.90;;;;;;5028567;28;20004;-70
2022/08/17 04:07:32;;;;;;;;;;;20.10;99.90;;;;;;5028819;28;20043;-70
2022/08/17 04:09:58;;;;;;;;;;;20.10;99.90;;;;;;5028604;28;19927;-69
2022/08/17 04:12:24;;;;;;;;;;;20.00;99.90;;;;;;5028479;28;20012;-70
2022/08/17 04:14:50;;;;;;;;;;;20.00;99.90;;;;;;5027281;28;20011;-71
2022/08/17 04:17:15;;;;;;;;;;;20.00;99.90;;;;;;5028741;28;20580;-70
2022/08/17 04:19:41;;;;;;;;;;;20.00;99.90;;;;;;5028263;28;19925;-69
2022/08/17 04:22:07;;;;;;;;;;;20.00;99.90;;;;;;5029010;28;19976;-69
2022/08/17 04:24:32;;;;;;;;;;;19.90;99.90;;;;;;5028607;28;19921;-70
2022/08/17 04:26:58;;;;;;;;;;;19.90;99.90;;;;;;5029582;28;20322;-70
2022/08/17 04:29:24;;;;;;;;;;;20.00;99.90;;;;;;5031921;28;19928;-70
2022/08/17 04:31:50;;;;;;;;;;;19.90;99.90;;;;;;5031878;28;19921;-70
2022/08/17 04:34:16;;;;;;;;;;;19.90;99.90;;;;;;5032015;28;19921;-69
2022/08/17 04:36:42;;;;;;;;;;;19.90;99.90;;;;;;5031059;28;19925;-71
2022/08/17 04:39:08;;;;;;;;;;;19.90;99.90;;;;;;5031637;28;19921;-70
2022/08/17 04:44:18;;;;;;;;;;;19.80;99.90;;;;;;5029655;28;19924;-69
2022/08/17 04:46:43;;;;;;;;;;;19.80;99.90;;;;;;5031412;28;19928;-70
2022/08/17 04:49:09;;;;;;;;;;;19.80;99.90;;;;;;5030791;28;20445;-69
2022/08/17 04:51:42;;;;;;;;;;;19.80;99.90;;;;;;5030996;28;19961;-69
2022/08/17 04:54:15;;;;;;;;;;;19.70;99.90;;;;;;5031355;28;19928;-70
2022/08/17 04:56:41;;;;;;;;;;;19.80;99.90;;;;;;5031106;28;19999;-70
2022/08/17 04:59:08;;;;;;;;;;;19.80;99.90;;;;;;5031688;28;20451;-69
2022/08/17 05:01:35;;;;;;;;;;;19.80;99.90;;;;;;5031644;28;19921;-70
2022/08/17 05:04:02;;;;;;;;;;;19.90;99.90;;;;;;5031307;28;19963;-70
2022/08/17 05:06:28;;;;;;;;;;;19.90;99.90;;;;;;5031182;28;19925;-70
2022/08/17 05:08:54;;;;;;;;;;;19.90;99.90;;;;;;5031305;28;19927;-70
2022/08/17 05:11:19;;;;;;;;;;;19.90;99.90;;;;;;5030435;28;19927;-72
2022/08/17 05:13:45;;;;;;;;;;;19.90;99.90;;;;;;5031298;28;19925;-71
2022/08/17 05:16:10;;;;;;;;;;;19.90;99.90;;;;;;5031365;28;19975;-71
2022/08/17 05:18:37;;;;;;;;;;;19.90;99.90;;;;;;5031446;28;20004;-71
2022/08/17 05:21:03;;;;;;;;;;;20.00;99.90;;;;;;5031867;28;19959;-71
2022/08/17 05:23:29;;;;;;;;;;;20.00;99.90;;;;;;5031774;28;19960;-71
2022/08/17 05:25:55;;;;;;;;;;;20.00;99.90;;;;;;5031458;28;19921;-71
2022/08/17 05:28:21;;;;;;;;;;;20.00;99.90;;;;;;5031573;28;19943;-71
2022/08/17 05:30:48;;;;;;;;;;;20.10;99.90;;;;;;5030945;28;20291;-71
2022/08/17 05:33:21;;;;;;;;;;;20.10;99.90;;;;;;5030393;28;19921;-71
2022/08/17 05:35:48;;;;;;;;;;;20.00;99.90;;;;;;5031357;28;19966;-71
2022/08/17 05:38:14;;;;;;;;;;;20.10;99.90;;;;;;5031152;28;19974;-71
2022/08/17 05:40:41;;;;;;;;;;;20.10;99.90;;;;;;5030345;28;20290;-71
2022/08/17 05:43:09;;;;;;;;;;;20.10;99.90;;;;;;5031267;28;20434;-72
2022/08/17 05:45:36;;;;;;;;;;;20.10;99.90;;;;;;5031493;28;19928;-71
2022/08/17 05:48:01;;;;;;;;;;;20.10;99.90;;;;;;5031073;28;19944;-71
2022/08/17 05:50:30;;;;;;;;;;;20.20;99.90;;;;;;5030624;28;20392;-71
2022/08/17 05:53:08;;;;;;;;;;;20.10;99.90;;;;;;5031026;28;20022;-71
2022/08/17 05:55:41;;;;;;;;;;;20.20;99.90;;;;;;5031162;28;20011;-71
2022/08/17 05:58:25;;;;;;;;;;;20.20;99.90;;;;;;5030339;28;19936;-71
2022/08/17 06:00:50;;;;;;;;;;;20.20;99.90;;;;;;5029598;28;19974;-71
2022/08/17 06:03:16;;;;;;;;;;;20.10;99.90;;;;;;5030985;28;20389;-71
2022/08/17 06:06:00;;;;;;;;;;;20.20;99.90;;;;;;5030831;28;19924;-71
2022/08/17 06:08:28;;;;;;;;;;;20.20;99.90;;;;;;5018720;28;19921;-71
2022/08/17 06:11:05;;;;;;;;;;;20.20;99.90;;;;;;5030409;28;19921;-71
2022/08/17 06:13:54;;;;;;;;;;;20.20;99.90;;;;;;5029330;28;19924;-71
2022/08/17 06:16:24;;;;;;;;;;;20.20;99.90;;;;;;5011139;28;19921;-71
2022/08/17 06:18:54;;;;;;;;;;;20.20;99.90;;;;;;5030590;28;20011;-71
2022/08/17 06:21:20;;;;;;;;;;;20.30;99.90;;;;;;5029500;28;20020;-71
2022/08/17 06:24:18;;;;;;;;;;;20.20;99.90;;;;;;5028241;28;20008;-71
2022/08/17 06:26:44;;;;;;;;;;;20.30;99.90;;;;;;4995718;28;19932;-71
2022/08/17 06:29:16;;;;;;;;;;;20.40;99.90;;;;;;5029087;28;19982;-71
2022/08/17 06:31:42;;;;;;;;;;;20.40;99.90;;;;;;5029465;28;19932;-72
2022/08/17 06:34:09;;;;;;;;;;;20.50;99.90;;;;;;5029436;28;19921;-71
2022/08/17 06:36:42;;;;;;;;;;;20.50;99.90;;;;;;5029929;28;20375;-71
2022/08/17 06:39:16;;;;;;;;;;;20.50;99.90;;;;;;5030139;28;19921;-71
2022/08/17 06:41:48;;;;;;;;;;;20.50;99.90;;;;;;5029823;28;19979;-71
2022/08/17 06:44:23;;;;;;;;;;;20.50;99.90;;;;;;5030619;28;19943;-71
2022/08/17 06:46:51;;;;;;;;;;;20.60;99.90;;;;;;5030116;28;20268;-71
2022/08/17 06:49:29;;;;;;;;;;;20.60;99.90;;;;;;5029385;28;19921;-71
2022/08/17 06:51:59;;;;;;;;;;;20.60;99.90;;;;;;5029605;28;20262;-70
2022/08/17 06:54:44;;;;;;;;;;;20.60;99.90;;;;;;5029900;28;19921;-71
2022/08/17 06:57:10;;;;;;;;;;;20.70;99.90;;;;;;5029968;28;19921;-71
2022/08/17 06:59:54;;;;;;;;;;;20.80;99.90;;;;;;5028379;28;19961;-71
2022/08/17 07:02:36;;;;;;;;;;;20.80;99.90;;;;;;5030096;28;20008;-71
2022/08/17 07:05:03;;;;;;;;;;;20.80;99.90;;;;;;5029771;28;19925;-71
2022/08/17 07:10:13;;;;;;;;;;;20.80;99.90;;;;;;5018628;28;19921;-71
2022/08/17 07:12:40;;;;;;;;;;;20.80;99.90;;;;;;5028941;28;19921;-71
2022/08/17 07:15:08;;;;;;;;;;;20.90;99.90;;;;;;5029777;28;20303;-72
2022/08/17 07:17:34;;;;;;;;;;;20.80;99.90;;;;;;5029537;28;19921;-71
2022/08/17 07:20:04;;;;;;;;;;;20.80;99.90;;;;;;5029770;28;19979;-71
2022/08/17 07:22:32;;;;;;;;;;;20.80;99.90;;;;;;5029745;28;20938;-71
2022/08/17 07:25:05;;;;;;;;;;;20.80;99.90;;;;;;5029459;28;19925;-72
2022/08/17 07:27:36;;;;;;;;;;;20.70;99.90;;;;;;5029525;28;19952;-71
2022/08/17 07:30:21;;;;;;;;;;;20.70;99.90;;;;;;5029705;28;20554;-71
2022/08/17 07:32:49;;;;;;;;;;;20.60;99.90;;;;;;5028870;28;19943;-71
2022/08/17 07:35:15;;;;;;;;;;;20.60;99.90;;;;;;5029688;28;20402;-71
2022/08/17 07:37:43;;;;;;;;;;;20.60;99.90;;;;;;5029309;28;19925;-72
2022/08/17 07:40:19;;;;;;;;;;;20.60;99.90;;;;;;5029720;28;20029;-72
2022/08/17 07:43:04;;;;;;;;;;;20.50;99.90;;;;;;5029351;28;20414;-71
2022/08/17 07:48:18;;;;;;;;;;;20.50;99.90;;;;;;5029417;28;19921;-71
2022/08/17 07:50:44;;;;;;;;;;;20.40;99.90;;;;;;5028725;28;20576;-71
2022/08/17 07:53:23;;;;;;;;;;;20.40;99.90;;;;;;5029629;28;20009;-71
2022/08/17 07:55:49;;;;;;;;;;;20.40;99.90;;;;;;5029511;28;20012;-72
2022/08/17 07:58:17;;;;;;;;;;;20.30;99.90;;;;;;5027785;28;19921;-71
2022/08/17 08:00:42;;;;;;;;;;;20.30;99.90;;;;;;5029439;28;19921;-72
2022/08/17 08:03:14;;;;;;;;;;;20.20;99.90;;;;;;5033063;28;20008;-71
2022/08/17 08:05:47;;;;;;;;;;;20.20;99.90;;;;;;5033393;28;19975;-71
2022/08/17 08:08:20;;;;;;;;;;;20.20;99.90;;;;;;5032209;28;19924;-71
2022/08/17 08:10:56;;;;;;;;;;;20.10;99.90;;;;;;5033065;28;20291;-71
2022/08/17 08:13:23;;;;;;;;;;;20.10;99.90;;;;;;5021377;28;19924;-71
2022/08/17 08:15:50;;;;;;;;;;;20.10;99.90;;;;;;5032587;28;20375;-71
2022/08/17 08:18:19;;;;;;;;;;;20.10;99.90;;;;;;5033053;28;19983;-71
2022/08/17 08:20:48;;;;;;;;;;;20.10;99.90;;;;;;5032571;28;19921;-71
2022/08/17 08:23:17;;;;;;;;;;;20.20;99.90;;;;;;5032673;28;19956;-72
2022/08/17 08:25:55;;;;;;;;;;;20.20;99.90;;;;;;5031534;28;19927;-71
2022/08/17 08:28:21;;;;;;;;;;;20.20;99.90;;;;;;5032010;28;20677;-71
2022/08/17 08:30:48;;;;;;;;;;;20.20;99.90;;;;;;5031305;28;20112;-71
2022/08/17 08:33:20;;;;;;;;;;;20.20;99.90;;;;;;5031922;28;19921;-72
2022/08/17 08:35:50;;;;;;;;;;;20.20;99.90;;;;;;5031348;28;20012;-71
2022/08/17 08:38:27;;;;;;;;;;;20.20;99.90;;;;;;5031883;28;20016;-72
2022/08/17 08:40:52;;;;;;;;;;;20.20;99.90;;;;;;5031307;28;19921;-71
2022/08/17 08:43:25;;;;;;;;;;;20.30;99.90;;;;;;5030327;28;20012;-71
2022/08/17 08:45:59;;;;;;;;;;;20.30;99.90;;;;;;5030252;28;19931;-71
2022/08/17 08:48:28;;;;;;;;;;;20.50;99.90;;;;;;5029897;28;19925;-72
2022/08/17 08:50:59;;;;;;;;;;;20.60;99.90;;;;;;5031209;28;20391;-71
2022/08/17 08:53:31;;;;;;;;;;;20.60;99.90;;;;;;5031013;28;19971;-71
2022/08/17 08:56:02;;;;;;;;;;;20.70;99.90;;;;;;5031410;28;19921;-71
2022/08/17 08:58:35;;;;;;;;;;;20.80;99.90;;;;;;5030967;28;19929;-71
2022/08/17 09:01:07;;;;;;;;;;;20.80;99.90;;;;;;5031383;28;19928;-71
2022/08/17 09:03:33;;;;;;;;;;;20.90;99.90;;;;;;5030732;28;20287;-71
2022/08/17 09:05:59;;;;;;;;;;;20.90;99.90;;;;;;5030555;28;19975;-71
2022/08/17 09:08:35;;;;;;;;;;;21.00;99.90;;;;;;5031841;28;20998;-72
2022/08/17 09:11:04;;;;;;;;;;;21.10;99.90;;;;;;5031621;28;20486;-72
2022/08/17 09:13:29;;;;;;;;;;;21.10;99.90;;;;;;5031131;28;19921;-71
2022/08/17 09:16:03;;;;;;;;;;;21.20;99.90;;;;;;5031394;28;20514;-72
2022/08/17 09:18:34;;;;;;;;;;;21.20;99.90;;;;;;5031830;28;20012;-71
2022/08/17 09:21:06;;;;;;;;;;;21.20;99.90;;;;;;5031492;28;20315;-71
2022/08/17 09:23:35;;;;;;;;;;;21.30;99.90;;;;;;5031477;28;19921;-71
2022/08/17 09:26:13;;;;;;;;;;;21.30;99.90;;;;;;5031537;28;20016;-71
2022/08/17 09:28:41;;;;;;;;;;;21.40;99.90;;;;;;5031680;28;19921;-71
2022/08/17 09:31:08;;;;;;;;;;;21.50;99.90;;;;;;5031548;28;20011;-71
2022/08/17 09:33:38;;;;;;;;;;;21.50;99.90;;;;;;5031237;28;19925;-72
2022/08/17 09:36:08;;;;;;;;;;;21.70;99.90;;;;;;5019128;28;20003;-71
2022/08/17 09:38:34;;;;;;;;;;;21.70;99.90;;;;;;5030893;28;19921;-71
2022/08/17 09:41:09;;;;;;;;;;;21.90;99.90;;;;;;5031096;28;19933;-72
2022/08/17 09:43:34;;;;;;;;;;;22.10;99.90;;;;;;5030909;28;19932;-72
2022/08/17 09:46:02;;;;;;;;;;;22.60;99.90;;;;;;5031202;28;19925;-72
2022/08/17 09:48:31;;;;;;;;;;;23.30;99.90;;;;;;5029853;28;19921;-73
2022/08/17 09:51:08;;;;;;;;;;;23.80;99.90;;;;;;5030724;28;20774;-71
2022/08/17 09:53:34;;;;;;;;;;;24.20;99.90;;;;;;5030664;28;21382;-71
2022/08/17 09:56:19;;;;;;;;;;;24.50;99.90;;;;;;5030713;28;20006;-72
2022/08/17 09:59:03;;;;;;;;;;;24.70;99.90;;;;;;5017757;28;20290;-72
2022/08/17 10:01:36;;;;;;;;;;;24.60;99.90;;;;;;5030651;28;19932;-72
2022/08/17 10:04:20;;;;;;;;;;;24.60;99.90;;;;;;5030922;28;20004;-72
2022/08/17 10:06:48;;;;;;;;;;;24.60;99.90;;;;;;5030653;28;19921;-72
2022/08/17 10:09:18;;;;;;;;;;;24.50;99.90;;;;;;5030815;28;19947;-71
2022/08/17 10:14:38;;;;;;;;;;;24.00;99.90;;;;;;5030765;28;19921;-72
2022/08/17 10:17:10;;;;;;;;;;;23.80;99.90;;;;;;5030773;28;19921;-71
2022/08/17 10:19:38;;;;;;;;;;;23.70;99.90;;;;;;5030407;28;20363;-71
2022/08/17 10:27:43;;;;;;;;;;;23.50;99.90;;;;;;5029578;28;19921;-71
2022/08/17 10:30:10;;;;;;;;;;;23.50;99.90;;;;;;5030318;28;19929;-72
2022/08/17 10:32:56;;;;;;;;;;;23.70;99.90;;;;;;5030222;28;19921;-71
2022/08/17 10:35:25;;;;;;;;;;;23.80;99.90;;;;;;5030041;28;19975;-72
2022/08/17 10:38:04;;;;;;;;;;;24.10;99.90;;;;;;5030088;28;19951;-73
2022/08/17 10:40:47;;;;;;;;;;;24.30;99.90;;;;;;5030134;28;20307;-71
2022/08/17 10:43:13;;;;;;;;;;;24.70;99.90;;;;;;5030082;28;20644;-71
2022/08/17 10:45:52;;;;;;;;;;;24.90;99.90;;;;;;5030300;28;19921;-72
2022/08/17 10:48:26;;;;;;;;;;;25.00;99.90;;;;;;5030119;28;19921;-71
2022/08/17 10:50:54;;;;;;;;;;;24.90;99.90;;;;;;5029701;28;19921;-72
2022/08/17 10:53:32;;;;;;;;;;;24.90;99.90;;;;;;5030253;28;20008;-71
2022/08/17 10:56:13;;;;;;;;;;;24.80;99.90;;;;;;5029905;28;19964;-71
2022/08/17 10:58:49;;;;;;;;;;;24.70;99.90;;;;;;5029768;28;19956;-71
2022/08/17 11:01:16;;;;;;;;;;;24.60;99.90;;;;;;5028960;28;19968;-71
2022/08/17 11:03:51;;;;;;;;;;;24.50;99.90;;;;;;5028204;28;19920;-71
2022/08/17 11:06:33;;;;;;;;;;;24.40;99.90;;;;;;5029605;28;19975;-72
2022/08/17 11:09:05;;;;;;;;;;;24.30;99.90;;;;;;5030013;28;19925;-71
2022/08/17 11:11:49;;;;;;;;;;;24.30;99.90;;;;;;5029646;28;19921;-71
2022/08/17 11:14:22;;;;;;;;;;;24.30;99.90;;;;;;5029546;28;19921;-71
2022/08/17 11:17:06;;;;;;;;;;;24.30;99.90;;;;;;5029889;28;19921;-72
2022/08/17 11:19:49;;;;;;;;;;;24.20;99.90;;;;;;5029322;28;20402;-71
2022/08/17 11:22:33;;;;;;;;;;;24.10;99.90;;;;;;5029285;28;20391;-72
2022/08/17 11:25:10;;;;;;;;;;;24.00;99.90;;;;;;5019131;28;20012;-71
2022/08/17 11:27:36;;;;;;;;;;;23.90;99.90;;;;;;5029384;28;19947;-71
2022/08/17 11:30:04;;;;;;;;;;;23.80;99.90;;;;;;5029675;28;20299;-72
2022/08/17 11:32:30;;;;;;;;;;;23.80;99.90;;;;;;5028834;28;20011;-71
2022/08/17 11:35:11;;;;;;;;;;;23.70;99.90;;;;;;5028546;28;20011;-71
2022/08/17 11:37:55;;;;;;;;;;;23.80;99.90;;;;;;5032887;28;19925;-71
2022/08/17 11:40:40;;;;;;;;;;;23.80;99.90;;;;;;5033227;28;19921;-71
2022/08/17 11:43:22;;;;;;;;;;;23.80;99.90;;;;;;5033620;28;19928;-71
2022/08/17 11:46:06;;;;;;;;;;;23.80;99.90;;;;;;5033309;28;19928;-71
2022/08/17 11:51:32;;;;;;;;;;;24.00;99.90;;;;;;5032961;28;20023;-71
2022/08/17 11:54:06;;;;;;;;;;;24.00;99.90;;;;;;5020765;28;19971;-71
2022/08/17 11:56:46;;;;;;;;;;;24.20;99.90;;;;;;5033210;28;20391;-72
2022/08/17 11:59:31;;;;;;;;;;;24.30;99.90;;;;;;5033665;28;20292;-71
2022/08/17 12:01:57;;;;;;;;;;;24.60;99.90;;;;;;5031851;28;19931;-71
2022/08/17 12:04:26;;;;;;;;;;;24.90;99.90;;;;;;5032772;28;19920;-71
2022/08/17 12:06:55;;;;;;;;;;;25.00;99.90;;;;;;5032866;28;19960;-71
2022/08/17 12:09:23;;;;;;;;;;;25.20;99.90;;;;;;5032376;28;19933;-71
2022/08/17 12:12:02;;;;;;;;;;;25.30;99.90;;;;;;5031909;28;19975;-71
2022/08/17 12:14:31;;;;;;;;;;;25.40;99.90;;;;;;5031568;28;20031;-72
2022/08/17 12:17:11;;;;;;;;;;;25.50;99.90;;;;;;5031907;28;19921;-72
2022/08/17 12:19:38;;;;;;;;;;;25.40;99.90;;;;;;5032025;28;19921;-71
2022/08/17 12:22:04;;;;;;;;;;;25.30;99.90;;;;;;5032047;28;19921;-71
2022/08/17 12:24:32;;;;;;;;;;;25.30;99.90;;;;;;5031796;28;20283;-72
2022/08/17 12:26:59;;;;;;;;;;;25.20;99.90;;;;;;5031537;28;19971;-72
2022/08/17 12:29:25;;;;;;;;;;;25.20;99.90;;;;;;5031617;28;19920;-72
2022/08/17 12:31:52;;;;;;;;;;;25.00;99.90;;;;;;5031466;28;19971;-71
2022/08/17 12:34:32;;;;;;;;;;;24.90;99.90;;;;;;5031728;28;19928;-71
2022/08/17 12:37:03;;;;;;;;;;;24.90;99.90;;;;;;5031461;28;19971;-71
2022/08/17 12:39:29;;;;;;;;;;;24.80;99.90;;;;;;5030024;28;19932;-71
2022/08/17 12:41:56;;;;;;;;;;;24.80;99.90;;;;;;5031869;28;19920;-71
2022/08/17 12:44:23;;;;;;;;;;;24.80;99.90;;;;;;5032504;28;19998;-71
2022/08/17 12:46:51;;;;;;;;;;;24.70;99.90;;;;;;5031474;28;19940;-71
2022/08/17 12:49:28;;;;;;;;;;;24.70;99.90;;;;;;5031994;28;19925;-71
2022/08/17 12:52:14;;;;;;;;;;;24.60;99.90;;;;;;5032039;28;20486;-72
2022/08/17 12:54:40;;;;;;;;;;;24.60;99.90;;;;;;5032132;28;20315;-71
2022/08/17 12:57:11;;;;;;;;;;;24.50;99.90;;;;;;5032072;28;19921;-71
2022/08/17 12:59:39;;;;;;;;;;;24.60;99.90;;;;;;5032050;28;20387;-71
2022/08/17 13:02:06;;;;;;;;;;;24.50;99.90;;;;;;5032176;28;19924;-71
2022/08/17 13:04:31;;;;;;;;;;;24.50;99.90;;;;;;5031669;28;19921;-70
2022/08/17 13:06:57;;;;;;;;;;;24.50;99.90;;;;;;5031980;28;19928;-71
2022/08/17 13:09:26;;;;;;;;;;;24.50;99.90;;;;;;5032328;28;19921;-71
2022/08/17 13:11:54;;;;;;;;;;;24.50;99.90;;;;;;5032025;28;20352;-71
2022/08/17 13:14:19;;;;;;;;;;;24.50;99.90;;;;;;5031649;28;19929;-71
2022/08/17 13:16:54;;;;;;;;;;;24.50;99.90;;;;;;5031376;28;19921;-72
2022/08/17 13:19:21;;;;;;;;;;;24.40;99.90;;;;;;5031309;28;19932;-71
2022/08/17 13:21:51;;;;;;;;;;;24.40;99.90;;;;;;5031506;28;20301;-71
2022/08/17 13:24:17;;;;;;;;;;;24.30;99.90;;;;;;5029386;28;20653;-71
2022/08/17 13:26:42;;;;;;;;;;;24.30;99.90;;;;;;5031493;28;19925;-71
2022/08/17 13:29:23;;;;;;;;;;;24.30;99.90;;;;;;5031658;28;20292;-71
2022/08/17 13:31:53;;;;;;;;;;;24.30;99.90;;;;;;5031320;28;19978;-71
2022/08/17 13:34:19;;;;;;;;;;;24.30;99.90;;;;;;5031295;28;19971;-71
2022/08/17 13:36:45;;;;;;;;;;;24.40;99.90;;;;;;5031577;28;19971;-71
2022/08/17 13:39:13;;;;;;;;;;;24.30;99.90;;;;;;5030126;28;19921;-72
2022/08/17 13:41:38;;;;;;;;;;;24.40;99.90;;;;;;5031250;28;19960;-71
2022/08/17 13:44:25;;;;;;;;;;;24.40;99.90;;;;;;5030920;28;20014;-71
2022/08/17 13:46:51;;;;;;;;;;;24.40;99.90;;;;;;5030283;28;19968;-72
2022/08/17 13:49:19;;;;;;;;;;;24.40;99.90;;;;;;5030926;28;19972;-72
2022/08/17 13:51:45;;;;;;;;;;;24.30;99.90;;;;;;5030766;28;20410;-72
2022/08/17 13:54:31;;;;;;;;;;;24.30;99.90;;;;;;5030339;28;20462;-71
2022/08/17 13:56:59;;;;;;;;;;;24.30;99.90;;;;;;5030813;28;20621;-71
2022/08/17 13:59:30;;;;;;;;;;;24.20;99.90;;;;;;5031312;28;19944;-71
2022/08/17 14:01:56;;;;;;;;;;;24.30;99.90;;;;;;5018356;28;19921;-71
2022/08/17 14:04:22;;;;;;;;;;;24.40;99.90;;;;;;5031139;28;20409;-71
2022/08/17 14:06:53;;;;;;;;;;;24.40;99.90;;;;;;5030798;28;19921;-71
2022/08/17 14:09:20;;;;;;;;;;;24.50;99.90;;;;;;5030842;28;19960;-71
2022/08/17 14:11:46;;;;;;;;;;;24.70;99.90;;;;;;5030643;28;19964;-72
2022/08/17 14:14:13;;;;;;;;;;;24.90;99.90;;;;;;5031078;28;19925;-72
2022/08/17 14:16:40;;;;;;;;;;;25.20;99.90;;;;;;5030115;28;19967;-71
2022/08/17 14:19:10;;;;;;;;;;;25.40;99.90;;;;;;5030475;28;19932;-72
2022/08/17 14:21:36;;;;;;;;;;;25.50;99.90;;;;;;5030664;28;19928;-71
2022/08/17 14:24:02;;;;;;;;;;;25.90;99.90;;;;;;5030412;28;19964;-72
2022/08/17 14:26:27;;;;;;;;;;;26.00;99.90;;;;;;5030503;28;19975;-72
2022/08/17 14:28:53;;;;;;;;;;;25.80;99.60;;;;;;5030421;28;19921;-71
2022/08/17 14:31:19;;;;;;;;;;;25.50;99.90;;;;;;5030310;28;19925;-72
2022/08/17 14:33:45;;;;;;;;;;;25.30;99.90;;;;;;5030155;28;20509;-71
2022/08/17 14:36:10;;;;;;;;;;;25.10;99.90;;;;;;5029543;28;19921;-71
2022/08/17 14:38:36;;;;;;;;;;;24.90;99.90;;;;;;5030157;28;19921;-71
2022/08/17 14:41:03;;;;;;;;;;;24.80;99.90;;;;;;5030161;28;19921;-71
2022/08/17 14:43:31;;;;;;;;;;;24.70;99.90;;;;;;5030187;28;19920;-71
2022/08/17 14:45:57;;;;;;;;;;;24.60;99.90;;;;;;5030262;28;19967;-71
2022/08/17 14:48:22;;;;;;;;;;;24.50;99.90;;;;;;5028771;28;19921;-71
2022/08/17 14:50:48;;;;;;;;;;;24.40;99.90;;;;;;5030157;28;19928;-72
2022/08/17 14:53:15;;;;;;;;;;;24.30;99.90;;;;;;5029935;28;19921;-71
2022/08/17 14:55:40;;;;;;;;;;;24.20;99.90;;;;;;5030194;28;19921;-71
2022/08/17 14:58:07;;;;;;;;;;;24.10;99.90;;;;;;5028186;28;19967;-71
2022/08/17 15:00:33;;;;;;;;;;;24.00;99.90;;;;;;5029347;28;19925;-71